sensor_id;sensor_type;location;lat;lon;timestamp;pressure;altitude;pressure_sealevel;temperature;humidity
50292;BME280;36190;54.980;73.388;2022-08-27T00:01:35;100404.78;;;16.79;76.59
50292;BME280;36190;54.980;73.388;2022-08-27T00:04:04;100413.06;;;16.77;76.88
50292;BME280;36190;54.980;73.388;2022-08-27T00:06:31;100415.16;;;16.75;77.07
50292;BME280;36190;54.980;73.388;2022-08-27T00:09:01;100408.50;;;16.71;77.48
50292;BME280;36190;54.980;73.388;2022-08-27T00:11:28;100414.31;;;16.68;77.74
50292;BME280;36190;54.980;73.388;2022-08-27T00:13:56;100409.97;;;16.67;77.87
50292;BME280;36190;54.980;73.388;2022-08-27T00:16:23;100415.56;;;16.66;78.11
50292;BME280;36190;54.980;73.388;2022-08-27T00:18:53;100419.31;;;16.64;78.61
50292;BME280;36190;54.980;73.388;2022-08-27T00:21:24;100426.34;;;16.66;78.67
50292;BME280;36190;54.980;73.388;2022-08-27T00:23:52;100421.19;;;16.64;78.81
50292;BME280;36190;54.980;73.388;2022-08-27T00:26:19;100423.88;;;16.64;78.75
50292;BME280;36190;54.980;73.388;2022-08-27T00:28:46;100430.91;;;16.65;79.04
50292;BME280;36190;54.980;73.388;2022-08-27T00:31:14;100435.06;;;16.68;79.03
50292;BME280;36190;54.980;73.388;2022-08-27T00:33:41;100432.38;;;16.68;79.31
50292;BME280;36190;54.980;73.388;2022-08-27T00:36:10;100443.34;;;16.66;79.21
50292;BME280;36190;54.980;73.388;2022-08-27T00:38:40;100447.88;;;16.66;79.46
50292;BME280;36190;54.980;73.388;2022-08-27T00:41:09;100434.63;;;16.57;79.60
50292;BME280;36190;54.980;73.388;2022-08-27T00:43:47;100445.00;;;16.67;79.97
50292;BME280;36190;54.980;73.388;2022-08-27T00:46:19;100444.97;;;16.74;79.83
50292;BME280;36190;54.980;73.388;2022-08-27T00:48:48;100441.47;;;16.80;79.49
50292;BME280;36190;54.980;73.388;2022-08-27T00:51:17;100446.44;;;16.90;79.42
50292;BME280;36190;54.980;73.388;2022-08-27T00:53:48;100442.91;;;16.96;79.40
50292;BME280;36190;54.980;73.388;2022-08-27T00:56:18;100448.53;;;17.01;79.28
50292;BME280;36190;54.980;73.388;2022-08-27T00:58:48;100446.66;;;17.09;79.26
50292;BME280;36190;54.980;73.388;2022-08-27T01:01:19;100457.00;;;17.12;79.29
50292;BME280;36190;54.980;73.388;2022-08-27T01:03:49;100460.34;;;17.14;79.08
50292;BME280;36190;54.980;73.388;2022-08-27T01:06:18;100459.91;;;17.17;79.14
50292;BME280;36190;54.980;73.388;2022-08-27T01:08:50;100442.28;;;17.08;79.42
50292;BME280;36190;54.980;73.388;2022-08-27T01:11:19;100463.22;;;17.26;78.99
50292;BME280;36190;54.980;73.388;2022-08-27T01:13:46;100470.03;;;17.28;78.97
50292;BME280;36190;54.980;73.388;2022-08-27T01:16:17;100470.66;;;17.24;79.10
50292;BME280;36190;54.980;73.388;2022-08-27T01:18:46;100478.97;;;17.22;79.08
50292;BME280;36190;54.980;73.388;2022-08-27T01:21:21;100480.22;;;17.20;79.36
50292;BME280;36190;54.980;73.388;2022-08-27T01:23:56;100477.31;;;17.14;79.57
50292;BME280;36190;54.980;73.388;2022-08-27T01:26:28;100491.84;;;17.13;79.44
50292;BME280;36190;54.980;73.388;2022-08-27T01:28:56;100496.41;;;17.13;79.33
50292;BME280;36190;54.980;73.388;2022-08-27T01:31:25;100499.72;;;17.15;79.11
50292;BME280;36190;54.980;73.388;2022-08-27T01:33:56;100508.44;;;17.17;79.10
50292;BME280;36190;54.980;73.388;2022-08-27T01:36:24;100502.59;;;17.20;78.73
50292;BME280;36190;54.980;73.388;2022-08-27T01:38:51;100508.84;;;17.21;78.66
50292;BME280;36190;54.980;73.388;2022-08-27T01:41:19;100523.97;;;17.22;78.41
50292;BME280;36190;54.980;73.388;2022-08-27T01:43:48;100518.59;;;17.22;78.18
50292;BME280;36190;54.980;73.388;2022-08-27T01:46:20;100522.53;;;17.26;77.95
50292;BME280;36190;54.980;73.388;2022-08-27T01:48:48;100523.75;;;17.30;77.39
50292;BME280;36190;54.980;73.388;2022-08-27T01:51:15;100515.03;;;17.35;76.84
50292;BME280;36190;54.980;73.388;2022-08-27T01:53:44;100522.50;;;17.39;75.56
50292;BME280;36190;54.980;73.388;2022-08-27T01:56:12;100525.63;;;17.36;73.97
50292;BME280;36190;54.980;73.388;2022-08-27T01:58:40;100529.56;;;17.27;72.83
50292;BME280;36190;54.980;73.388;2022-08-27T02:01:11;100510.50;;;17.15;72.42
50292;BME280;36190;54.980;73.388;2022-08-27T02:03:41;100524.81;;;17.15;72.14
50292;BME280;36190;54.980;73.388;2022-08-27T02:06:10;100535.19;;;17.05;72.21
50292;BME280;36190;54.980;73.388;2022-08-27T02:08:38;100541.59;;;16.97;72.77
50292;BME280;36190;54.980;73.388;2022-08-27T02:11:06;100546.16;;;16.90;72.87
50292;BME280;36190;54.980;73.388;2022-08-27T02:13:34;100555.88;;;16.91;72.91
50292;BME280;36190;54.980;73.388;2022-08-27T02:16:02;100567.28;;;16.93;72.91
50292;BME280;36190;54.980;73.388;2022-08-27T02:18:34;100570.81;;;16.94;72.71
50292;BME280;36190;54.980;73.388;2022-08-27T02:21:03;100575.59;;;16.98;72.57
50292;BME280;36190;54.980;73.388;2022-08-27T02:23:31;100580.59;;;17.01;72.23
50292;BME280;36190;54.980;73.388;2022-08-27T02:25:58;100583.09;;;17.03;71.82
50292;BME280;36190;54.980;73.388;2022-08-27T02:28:26;100575.41;;;17.07;71.63
50292;BME280;36190;54.980;73.388;2022-08-27T02:30:53;100586.38;;;17.12;71.40
50292;BME280;36190;54.980;73.388;2022-08-27T02:33:21;100588.88;;;17.13;71.15
50292;BME280;36190;54.980;73.388;2022-08-27T02:35:49;100597.19;;;17.05;70.70
50292;BME280;36190;54.980;73.388;2022-08-27T02:38:17;100598.38;;;16.89;70.72
50292;BME280;36190;54.980;73.388;2022-08-27T02:40:45;100604.78;;;16.74;70.97
50292;BME280;36190;54.980;73.388;2022-08-27T02:43:12;100611.16;;;16.67;70.95
50292;BME280;36190;54.980;73.388;2022-08-27T02:45:40;100615.31;;;16.56;70.74
50292;BME280;36190;54.980;73.388;2022-08-27T02:48:07;100619.38;;;16.38;70.88
50292;BME280;36190;54.980;73.388;2022-08-27T02:50:36;100618.53;;;16.31;71.20
50292;BME280;36190;54.980;73.388;2022-08-27T02:53:05;100623.50;;;16.34;71.13
50292;BME280;36190;54.980;73.388;2022-08-27T02:55:33;100633.88;;;16.37;70.81
50292;BME280;36190;54.980;73.388;2022-08-27T02:58:00;100634.72;;;16.44;70.52
50292;BME280;36190;54.980;73.388;2022-08-27T03:00:28;100634.78;;;16.64;70.11
50292;BME280;36190;54.980;73.388;2022-08-27T03:02:56;100636.50;;;16.79;69.67
50292;BME280;36190;54.980;73.388;2022-08-27T03:05:23;100641.31;;;16.97;69.18
50292;BME280;36190;54.980;73.388;2022-08-27T03:07:51;100640.03;;;16.93;68.59
50292;BME280;36190;54.980;73.388;2022-08-27T03:10:20;100650.75;;;16.66;68.61
50292;BME280;36190;54.980;73.388;2022-08-27T03:12:48;100652.72;;;16.37;69.20
50292;BME280;36190;54.980;73.388;2022-08-27T03:15:17;100659.06;;;16.22;69.44
50292;BME280;36190;54.980;73.388;2022-08-27T03:17:46;100655.28;;;16.10;69.58
50292;BME280;36190;54.980;73.388;2022-08-27T03:20:31;100650.09;;;16.08;69.56
50292;BME280;36190;54.980;73.388;2022-08-27T03:22:59;100644.94;;;16.14;69.50
50292;BME280;36190;54.980;73.388;2022-08-27T03:25:28;100651.28;;;16.41;68.90
50292;BME280;36190;54.980;73.388;2022-08-27T03:27:55;100658.59;;;16.61;68.23
50292;BME280;36190;54.980;73.388;2022-08-27T03:30:23;100650.78;;;16.80;67.64
50292;BME280;36190;54.980;73.388;2022-08-27T03:32:51;100654.78;;;16.97;66.78
50292;BME280;36190;54.980;73.388;2022-08-27T03:35:20;100659.38;;;17.03;66.56
50292;BME280;36190;54.980;73.388;2022-08-27T03:37:48;100659.94;;;16.92;66.36
50292;BME280;36190;54.980;73.388;2022-08-27T03:40:16;100663.81;;;16.69;66.62
50292;BME280;36190;54.980;73.388;2022-08-27T03:42:45;100661.09;;;16.56;66.78
50292;BME280;36190;54.980;73.388;2022-08-27T03:45:13;100658.41;;;16.56;66.71
50292;BME280;36190;54.980;73.388;2022-08-27T03:47:40;100655.50;;;16.57;66.54
50292;BME280;36190;54.980;73.388;2022-08-27T03:50:09;100657.56;;;16.62;66.47
50292;BME280;36190;54.980;73.388;2022-08-27T03:52:37;100658.03;;;16.72;65.97
50292;BME280;36190;54.980;73.388;2022-08-27T03:55:06;100652.41;;;16.60;65.91
50292;BME280;36190;54.980;73.388;2022-08-27T03:57:34;100665.44;;;16.57;66.22
50292;BME280;36190;54.980;73.388;2022-08-27T04:00:05;100670.19;;;16.55;66.12
50292;BME280;36190;54.980;73.388;2022-08-27T04:02:33;100666.25;;;16.50;66.20
50292;BME280;36190;54.980;73.388;2022-08-27T04:05:00;100672.84;;;16.41;65.74
50292;BME280;36190;54.980;73.388;2022-08-27T04:07:27;100670.03;;;16.21;66.09
50292;BME280;36190;54.980;73.388;2022-08-27T04:09:55;100668.31;;;16.06;66.19
50292;BME280;36190;54.980;73.388;2022-08-27T04:12:22;100668.13;;;16.08;66.07
50292;BME280;36190;54.980;73.388;2022-08-27T04:14:51;100677.13;;;16.29;65.66
50292;BME280;36190;54.980;73.388;2022-08-27T04:17:20;100679.28;;;16.54;64.94
50292;BME280;36190;54.980;73.388;2022-08-27T04:19:49;100688.50;;;16.80;64.16
50292;BME280;36190;54.980;73.388;2022-08-27T04:22:17;100683.44;;;17.05;63.62
50292;BME280;36190;54.980;73.388;2022-08-27T04:24:45;100691.16;;;17.35;62.82
50292;BME280;36190;54.980;73.388;2022-08-27T04:27:13;100683.47;;;17.45;62.14
50292;BME280;36190;54.980;73.388;2022-08-27T04:29:41;100685.16;;;17.40;61.76
50292;BME280;36190;54.980;73.388;2022-08-27T04:32:09;100686.81;;;17.34;61.52
50292;BME280;36190;54.980;73.388;2022-08-27T04:34:38;100693.22;;;17.26;61.37
50292;BME280;36190;54.980;73.388;2022-08-27T04:37:06;100690.91;;;17.10;61.50
50292;BME280;36190;54.980;73.388;2022-08-27T04:39:33;100696.09;;;17.04;61.29
50292;BME280;36190;54.980;73.388;2022-08-27T04:42:01;100697.94;;;17.11;60.80
50292;BME280;36190;54.980;73.388;2022-08-27T04:44:30;100698.78;;;17.18;60.29
50292;BME280;36190;54.980;73.388;2022-08-27T04:47:00;100699.03;;;17.30;60.13
50292;BME280;36190;54.980;73.388;2022-08-27T04:49:28;100699.66;;;17.45;59.64
50292;BME280;36190;54.980;73.388;2022-08-27T04:51:57;100697.19;;;17.57;59.05
50292;BME280;36190;54.980;73.388;2022-08-27T04:54:24;100706.72;;;17.67;58.85
50292;BME280;36190;54.980;73.388;2022-08-27T04:56:52;100715.44;;;17.62;57.91
50292;BME280;36190;54.980;73.388;2022-08-27T04:59:20;100717.13;;;17.50;57.62
50292;BME280;36190;54.980;73.388;2022-08-27T05:01:47;100709.22;;;17.55;57.50
50292;BME280;36190;54.980;73.388;2022-08-27T05:04:16;100714.00;;;17.66;56.93
50292;BME280;36190;54.980;73.388;2022-08-27T05:06:45;100702.78;;;17.56;56.24
50292;BME280;36190;54.980;73.388;2022-08-27T05:09:16;100709.22;;;17.48;55.93
50292;BME280;36190;54.980;73.388;2022-08-27T05:11:44;100709.22;;;17.48;56.00
50292;BME280;36190;54.980;73.388;2022-08-27T05:14:13;100719.19;;;17.54;55.58
50292;BME280;36190;54.980;73.388;2022-08-27T05:16:41;100715.63;;;17.60;54.84
50292;BME280;36190;54.980;73.388;2022-08-27T05:19:09;100704.63;;;17.69;53.77
50292;BME280;36190;54.980;73.388;2022-08-27T05:21:43;100721.25;;;17.79;53.08
50292;BME280;36190;54.980;73.388;2022-08-27T05:24:11;100714.81;;;17.87;52.76
50292;BME280;36190;54.980;73.388;2022-08-27T05:26:40;100716.91;;;18.05;52.06
50292;BME280;36190;54.980;73.388;2022-08-27T05:29:07;100719.78;;;18.24;51.76
50292;BME280;36190;54.980;73.388;2022-08-27T05:31:35;100716.88;;;18.25;51.76
50292;BME280;36190;54.980;73.388;2022-08-27T05:34:02;100726.22;;;18.23;51.91
50292;BME280;36190;54.980;73.388;2022-08-27T05:36:33;100724.97;;;18.19;51.94
50292;BME280;36190;54.980;73.388;2022-08-27T05:39:02;100729.34;;;18.13;52.07
50292;BME280;36190;54.980;73.388;2022-08-27T05:41:31;100719.16;;;18.22;51.96
50292;BME280;36190;54.980;73.388;2022-08-27T05:44:02;100725.34;;;18.36;51.67
50292;BME280;36190;54.980;73.388;2022-08-27T05:46:30;100727.84;;;18.37;51.36
50292;BME280;36190;54.980;73.388;2022-08-27T05:48:59;100731.41;;;18.18;51.37
50292;BME280;36190;54.980;73.388;2022-08-27T05:51:29;100733.47;;;18.02;51.50
50292;BME280;36190;54.980;73.388;2022-08-27T05:53:58;100724.16;;;17.91;51.48
50292;BME280;36190;54.980;73.388;2022-08-27T05:56:29;100728.31;;;17.87;51.73
50292;BME280;36190;54.980;73.388;2022-08-27T05:58:56;100737.03;;;17.96;51.79
50292;BME280;36190;54.980;73.388;2022-08-27T06:01:44;100733.06;;;17.92;51.33
50292;BME280;36190;54.980;73.388;2022-08-27T06:04:12;100746.56;;;17.92;51.09
50292;BME280;36190;54.980;73.388;2022-08-27T06:06:42;100748.88;;;17.95;50.87
50292;BME280;36190;54.980;73.388;2022-08-27T06:09:11;100754.88;;;18.10;50.58
50292;BME280;36190;54.980;73.388;2022-08-27T06:11:39;100741.97;;;18.26;50.48
50292;BME280;36190;54.980;73.388;2022-08-27T06:14:06;100741.53;;;18.42;50.24
50292;BME280;36190;54.980;73.388;2022-08-27T06:16:35;100745.22;;;18.62;49.99
50292;BME280;36190;54.980;73.388;2022-08-27T06:19:05;100748.94;;;18.74;49.94
50292;BME280;36190;54.980;73.388;2022-08-27T06:21:33;100745.59;;;18.79;49.65
50292;BME280;36190;54.980;73.388;2022-08-27T06:24:01;100738.06;;;18.81;49.79
50292;BME280;36190;54.980;73.388;2022-08-27T06:26:29;100736.38;;;18.87;49.67
50292;BME280;36190;54.980;73.388;2022-08-27T06:29:01;100750.50;;;18.95;49.30
50292;BME280;36190;54.980;73.388;2022-08-27T06:31:28;100750.13;;;18.85;48.27
50292;BME280;36190;54.980;73.388;2022-08-27T06:33:59;100749.78;;;18.68;48.10
50292;BME280;36190;54.980;73.388;2022-08-27T06:36:28;100752.06;;;18.64;47.66
50292;BME280;36190;54.980;73.388;2022-08-27T06:38:56;100746.44;;;18.73;46.77
50292;BME280;36190;54.980;73.388;2022-08-27T06:41:27;100741.84;;;18.80;46.34
50292;BME280;36190;54.980;73.388;2022-08-27T06:43:55;100740.75;;;18.88;46.26
50292;BME280;36190;54.980;73.388;2022-08-27T06:46:24;100755.69;;;19.04;46.34
50292;BME280;36190;54.980;73.388;2022-08-27T06:48:53;100746.47;;;19.12;46.11
50292;BME280;36190;54.980;73.388;2022-08-27T06:51:22;100754.56;;;19.18;46.11
50292;BME280;36190;54.980;73.388;2022-08-27T06:53:53;100744.56;;;19.26;45.62
50292;BME280;36190;54.980;73.388;2022-08-27T06:56:21;100742.50;;;19.14;45.04
50292;BME280;36190;54.980;73.388;2022-08-27T06:58:51;100744.25;;;19.02;45.14
50292;BME280;36190;54.980;73.388;2022-08-27T07:01:21;100740.28;;;18.97;45.40
50292;BME280;36190;54.980;73.388;2022-08-27T07:03:49;100741.72;;;19.07;45.31
50292;BME280;36190;54.980;73.388;2022-08-27T07:06:16;100746.28;;;19.13;45.02
50292;BME280;36190;54.980;73.388;2022-08-27T07:08:44;100751.50;;;19.08;44.99
50292;BME280;36190;54.980;73.388;2022-08-27T07:11:13;100745.50;;;18.92;45.08
50292;BME280;36190;54.980;73.388;2022-08-27T07:13:42;100747.19;;;18.87;45.15
50292;BME280;36190;54.980;73.388;2022-08-27T07:16:13;100741.78;;;18.93;44.95
50292;BME280;36190;54.980;73.388;2022-08-27T07:18:41;100754.97;;;19.22;44.39
50292;BME280;36190;54.980;73.388;2022-08-27T07:21:10;100741.59;;;19.27;43.92
50292;BME280;36190;54.980;73.388;2022-08-27T07:23:38;100760.94;;;19.31;43.80
50292;BME280;36190;54.980;73.388;2022-08-27T07:26:07;100756.53;;;19.36;43.81
50292;BME280;36190;54.980;73.388;2022-08-27T07:28:40;100739.03;;;19.39;43.72
50292;BME280;36190;54.980;73.388;2022-08-27T07:31:09;100753.47;;;19.58;43.59
50292;BME280;36190;54.980;73.388;2022-08-27T07:33:38;100755.03;;;19.73;42.90
50292;BME280;36190;54.980;73.388;2022-08-27T07:36:06;100753.22;;;19.92;42.14
50292;BME280;36190;54.980;73.388;2022-08-27T07:38:34;100749.44;;;20.18;41.40
50292;BME280;36190;54.980;73.388;2022-08-27T07:41:04;100752.31;;;20.42;40.95
50292;BME280;36190;54.980;73.388;2022-08-27T07:43:31;100761.75;;;20.58;40.80
50292;BME280;36190;54.980;73.388;2022-08-27T07:46:17;100749.44;;;20.74;40.96
50292;BME280;36190;54.980;73.388;2022-08-27T07:48:46;100756.78;;;20.74;41.28
50292;BME280;36190;54.980;73.388;2022-08-27T07:51:15;100766.31;;;20.58;41.74
50292;BME280;36190;54.980;73.388;2022-08-27T07:53:43;100764.47;;;20.40;41.94
50292;BME280;36190;54.980;73.388;2022-08-27T07:56:11;100754.44;;;20.40;41.82
50292;BME280;36190;54.980;73.388;2022-08-27T07:58:39;100762.81;;;20.57;41.23
50292;BME280;36190;54.980;73.388;2022-08-27T08:01:06;100761.28;;;20.61;40.29
50292;BME280;36190;54.980;73.388;2022-08-27T08:03:35;100751.47;;;20.79;39.76
50292;BME280;36190;54.980;73.388;2022-08-27T08:06:04;100752.50;;;21.15;39.46
50292;BME280;36190;54.980;73.388;2022-08-27T08:08:33;100756.63;;;21.49;39.05
50292;BME280;36190;54.980;73.388;2022-08-27T08:11:01;100746.41;;;21.75;38.17
50292;BME280;36190;54.980;73.388;2022-08-27T08:13:29;100747.94;;;21.94;37.70
50292;BME280;36190;54.980;73.388;2022-08-27T08:15:57;100745.72;;;22.15;37.21
50292;BME280;36190;54.980;73.388;2022-08-27T08:18:25;100745.47;;;22.29;36.79
50292;BME280;36190;54.980;73.388;2022-08-27T08:20:59;100742.59;;;22.47;36.64
50292;BME280;36190;54.980;73.388;2022-08-27T08:23:27;100751.19;;;22.68;36.52
50292;BME280;36190;54.980;73.388;2022-08-27T08:25:55;100738.53;;;22.86;36.41
50292;BME280;36190;54.980;73.388;2022-08-27T08:28:23;100743.13;;;23.14;36.25
50292;BME280;36190;54.980;73.388;2022-08-27T08:30:52;100735.19;;;23.13;36.03
50292;BME280;36190;54.980;73.388;2022-08-27T08:33:20;100734.81;;;23.21;36.05
50292;BME280;36190;54.980;73.388;2022-08-27T08:35:48;100739.47;;;23.38;35.97
50292;BME280;36190;54.980;73.388;2022-08-27T08:38:18;100740.81;;;23.52;35.16
50292;BME280;36190;54.980;73.388;2022-08-27T08:40:48;100737.66;;;23.43;35.21
50292;BME280;36190;54.980;73.388;2022-08-27T08:43:26;100735.84;;;23.49;35.33
50292;BME280;36190;54.980;73.388;2022-08-27T08:45:57;100742.88;;;23.62;34.23
50292;BME280;36190;54.980;73.388;2022-08-27T08:48:27;100742.56;;;23.58;33.95
50292;BME280;36190;54.980;73.388;2022-08-27T08:51:01;100743.78;;;23.68;33.37
50292;BME280;36190;54.980;73.388;2022-08-27T08:53:38;100735.94;;;23.88;32.79
50292;BME280;36190;54.980;73.388;2022-08-27T08:56:08;100739.47;;;24.06;32.53
50292;BME280;36190;54.980;73.388;2022-08-27T08:58:43;100745.56;;;24.30;32.36
50292;BME280;36190;54.980;73.388;2022-08-27T09:01:14;100740.50;;;24.62;32.42
50292;BME280;36190;54.980;73.388;2022-08-27T09:03:48;100743.25;;;24.89;32.13
50292;BME280;36190;54.980;73.388;2022-08-27T09:06:22;100737.03;;;25.21;32.11
50292;BME280;36190;54.980;73.388;2022-08-27T09:08:53;100744.25;;;25.60;31.92
50292;BME280;36190;54.980;73.388;2022-08-27T09:11:26;100748.41;;;25.68;31.59
50292;BME280;36190;54.980;73.388;2022-08-27T09:13:57;100750.53;;;25.61;31.56
50292;BME280;36190;54.980;73.388;2022-08-27T09:16:26;100749.91;;;25.53;31.99
50292;BME280;36190;54.980;73.388;2022-08-27T09:18:54;100744.34;;;25.43;31.78
50292;BME280;36190;54.980;73.388;2022-08-27T09:21:29;100743.22;;;25.39;31.58
50292;BME280;36190;54.980;73.388;2022-08-27T09:24:04;100755.50;;;25.64;31.47
50292;BME280;36190;54.980;73.388;2022-08-27T09:26:35;100740.06;;;25.85;30.88
50292;BME280;36190;54.980;73.388;2022-08-27T09:29:07;100755.13;;;25.88;30.02
50292;BME280;36190;54.980;73.388;2022-08-27T09:31:48;100765.34;;;25.70;30.01
50292;BME280;36190;54.980;73.388;2022-08-27T09:34:19;100774.34;;;25.38;30.26
50292;BME280;36190;54.980;73.388;2022-08-27T09:36:50;100765.09;;;25.11;30.33
50292;BME280;36190;54.980;73.388;2022-08-27T09:39:25;100768.75;;;25.22;30.56
50292;BME280;36190;54.980;73.388;2022-08-27T09:41:54;100769.97;;;25.37;30.30
50292;BME280;36190;54.980;73.388;2022-08-27T09:44:23;100769.63;;;25.56;29.95
50292;BME280;36190;54.980;73.388;2022-08-27T09:46:52;100761.19;;;26.00;30.11
50292;BME280;36190;54.980;73.388;2022-08-27T09:49:20;100776.84;;;26.53;29.23
50292;BME280;36190;54.980;73.388;2022-08-27T09:51:48;100779.75;;;26.89;29.09
50292;BME280;36190;54.980;73.388;2022-08-27T09:54:35;100776.44;;;26.87;29.08
50292;BME280;36190;54.980;73.388;2022-08-27T09:57:05;100785.91;;;26.59;29.00
50292;BME280;36190;54.980;73.388;2022-08-27T09:59:35;100788.72;;;26.21;29.66
50292;BME280;36190;54.980;73.388;2022-08-27T10:02:06;100778.53;;;25.78;30.01
50292;BME280;36190;54.980;73.388;2022-08-27T10:04:41;100782.75;;;25.59;30.66
50292;BME280;36190;54.980;73.388;2022-08-27T10:07:35;100776.88;;;25.72;30.74
50292;BME280;36190;54.980;73.388;2022-08-27T10:10:12;100777.59;;;25.35;31.38
50292;BME280;36190;54.980;73.388;2022-08-27T10:12:50;100783.94;;;24.68;32.13
50292;BME280;36190;54.980;73.388;2022-08-27T10:15:20;100774.50;;;23.97;32.90
50292;BME280;36190;54.980;73.388;2022-08-27T10:17:59;100788.75;;;23.87;33.12
50292;BME280;36190;54.980;73.388;2022-08-27T10:20:36;100792.00;;;24.19;32.72
50292;BME280;36190;54.980;73.388;2022-08-27T10:23:16;100805.13;;;24.61;32.31
50292;BME280;36190;54.980;73.388;2022-08-27T10:25:54;100806.34;;;24.31;32.70
50292;BME280;36190;54.980;73.388;2022-08-27T10:28:31;100805.03;;;23.82;33.48
50292;BME280;36190;54.980;73.388;2022-08-27T10:31:22;100798.66;;;23.76;33.78
50292;BME280;36190;54.980;73.388;2022-08-27T10:34:07;100802.06;;;24.18;33.65
50292;BME280;36190;54.980;73.388;2022-08-27T10:36:43;100796.19;;;24.66;33.26
50292;BME280;36190;54.980;73.388;2022-08-27T10:39:18;100808.44;;;25.08;32.48
50292;BME280;36190;54.980;73.388;2022-08-27T10:41:57;100789.91;;;25.10;32.01
50292;BME280;36190;54.980;73.388;2022-08-27T10:44:37;100805.53;;;24.92;31.99
50292;BME280;36190;54.980;73.388;2022-08-27T10:47:21;100806.34;;;24.93;32.31
50292;BME280;36190;54.980;73.388;2022-08-27T10:49:58;100798.25;;;25.25;32.36
50292;BME280;36190;54.980;73.388;2022-08-27T10:52:33;100814.09;;;25.84;31.85
50292;BME280;36190;54.980;73.388;2022-08-27T10:55:07;100806.88;;;26.38;31.00
50292;BME280;36190;54.980;73.388;2022-08-27T10:57:56;100805.44;;;26.88;30.46
50292;BME280;36190;54.980;73.388;2022-08-27T11:00:37;100811.84;;;27.20;29.95
50292;BME280;36190;54.980;73.388;2022-08-27T11:03:09;100803.44;;;27.63;29.65
50292;BME280;36190;54.980;73.388;2022-08-27T11:05:42;100809.44;;;28.12;28.87
50292;BME280;36190;54.980;73.388;2022-08-27T11:08:14;100812.72;;;28.35;28.38
50292;BME280;36190;54.980;73.388;2022-08-27T11:10:47;100818.72;;;28.52;28.23
50292;BME280;36190;54.980;73.388;2022-08-27T11:13:23;100823.53;;;28.81;27.98
50292;BME280;36190;54.980;73.388;2022-08-27T11:15:54;100821.66;;;28.72;27.72
50292;BME280;36190;54.980;73.388;2022-08-27T11:18:29;100822.44;;;28.82;27.75
50292;BME280;36190;54.980;73.388;2022-08-27T11:21:06;100827.31;;;29.06;27.49
50292;BME280;36190;54.980;73.388;2022-08-27T11:23:38;100825.53;;;29.26;27.57
50292;BME280;36190;54.980;73.388;2022-08-27T11:26:07;100828.06;;;29.62;27.43
50292;BME280;36190;54.980;73.388;2022-08-27T11:28:39;100836.63;;;29.90;26.86
50292;BME280;36190;54.980;73.388;2022-08-27T11:31:10;100842.97;;;30.21;26.74
50292;BME280;36190;54.980;73.388;2022-08-27T11:33:46;100848.53;;;30.69;26.00
50292;BME280;36190;54.980;73.388;2022-08-27T11:36:41;100853.00;;;30.60;26.18
50292;BME280;36190;54.980;73.388;2022-08-27T11:39:19;100834.97;;;30.24;25.86
50292;BME280;36190;54.980;73.388;2022-08-27T11:42:00;100845.34;;;30.57;25.49
50292;BME280;36190;54.980;73.388;2022-08-27T11:44:30;100857.19;;;30.82;25.38
50292;BME280;36190;54.980;73.388;2022-08-27T11:47:09;100855.38;;;30.96;24.81
50292;BME280;36190;54.980;73.388;2022-08-27T11:49:43;100858.69;;;30.93;24.96
50292;BME280;36190;54.980;73.388;2022-08-27T11:52:12;100854.44;;;31.25;24.86
50292;BME280;36190;54.980;73.388;2022-08-27T11:54:49;100857.75;;;31.27;24.38
50292;BME280;36190;54.980;73.388;2022-08-27T11:57:27;100863.81;;;31.63;24.15
50292;BME280;36190;54.980;73.388;2022-08-27T11:59:56;100876.78;;;31.81;23.85
50292;BME280;36190;54.980;73.388;2022-08-27T12:02:26;100872.53;;;31.89;23.76
50292;BME280;36190;54.980;73.388;2022-08-27T12:05:06;100874.44;;;32.22;23.45
50292;BME280;36190;54.980;73.388;2022-08-27T12:07:35;100866.50;;;32.34;23.57
50292;BME280;36190;54.980;73.388;2022-08-27T12:10:24;100872.66;;;32.73;23.20
50292;BME280;36190;54.980;73.388;2022-08-27T12:13:05;100866.66;;;32.24;23.62
50292;BME280;36190;54.980;73.388;2022-08-27T12:15:47;100877.03;;;31.99;23.91
50292;BME280;36190;54.980;73.388;2022-08-27T12:18:37;100875.81;;;31.91;23.85
50292;BME280;36190;54.980;73.388;2022-08-27T12:21:16;100870.69;;;31.46;24.45
50292;BME280;36190;54.980;73.388;2022-08-27T12:24:00;100878.13;;;31.65;24.32
50292;BME280;36190;54.980;73.388;2022-08-27T12:26:32;100869.38;;;31.77;24.25
50292;BME280;36190;54.980;73.388;2022-08-27T12:29:21;100873.59;;;32.07;24.16
50292;BME280;36190;54.980;73.388;2022-08-27T12:31:54;100878.13;;;32.17;24.12
50292;BME280;36190;54.980;73.388;2022-08-27T12:34:27;100850.91;;;32.10;23.73
50292;BME280;36190;54.980;73.388;2022-08-27T12:36:55;100865.91;;;32.37;23.96
50292;BME280;36190;54.980;73.388;2022-08-27T12:39:26;100868.16;;;32.49;23.73
50292;BME280;36190;54.980;73.388;2022-08-27T12:41:54;100864.69;;;32.58;23.60
50292;BME280;36190;54.980;73.388;2022-08-27T12:44:26;100863.97;;;32.66;23.24
50292;BME280;36190;54.980;73.388;2022-08-27T12:46:58;100868.78;;;32.60;23.35
50292;BME280;36190;54.980;73.388;2022-08-27T12:49:33;100864.13;;;32.28;23.50
50292;BME280;36190;54.980;73.388;2022-08-27T12:52:10;100872.03;;;32.34;23.46
50292;BME280;36190;54.980;73.388;2022-08-27T12:54:45;100869.75;;;32.22;23.71
50292;BME280;36190;54.980;73.388;2022-08-27T12:57:21;100873.81;;;32.11;23.86
50292;BME280;36190;54.980;73.388;2022-08-27T13:00:03;100874.81;;;32.01;23.50